createdAt,value
2022-12-17T00:02:41.749Z,59.34
2022-12-17T00:05:27.115Z,58.45
2022-12-17T00:08:15.623Z,59.01
2022-12-17T00:11:00.320Z,58.96
2022-12-17T00:13:45.658Z,58.82
2022-12-17T00:16:30.905Z,58.93
2022-12-17T00:19:15.906Z,58.53
2022-12-17T00:22:00.695Z,57.27
2022-12-17T00:24:45.443Z,57.76
2022-12-17T00:27:30.558Z,58.61
2022-12-17T00:30:15.303Z,58.19
2022-12-17T00:33:00.458Z,57.24
2022-12-17T00:35:45.601Z,57.04
2022-12-17T00:38:34.655Z,57.56
2022-12-17T00:41:19.412Z,58.84
2022-12-17T00:44:04.512Z,58.77
2022-12-17T00:46:49.636Z,58.75
2022-12-17T00:49:34.563Z,58.98
2022-12-17T00:52:22.716Z,58.74
2022-12-17T00:55:07.948Z,58.77
2022-12-17T00:57:52.926Z,58.70
2022-12-17T01:00:38.184Z,58.06
2022-12-17T01:03:28.814Z,57.33
2022-12-17T01:06:14.771Z,57.50
2022-12-17T01:08:59.925Z,58.20
2022-12-17T01:11:45.124Z,58.44
2022-12-17T01:14:30.008Z,57.83
2022-12-17T01:17:14.795Z,58.00
2022-12-17T01:19:59.670Z,58.22
2022-12-17T01:22:44.526Z,58.61
2022-12-17T01:25:29.530Z,58.45
2022-12-17T01:28:14.886Z,57.93
2022-12-17T01:31:02.263Z,57.56
2022-12-17T01:33:46.994Z,58.18
2022-12-17T01:36:31.792Z,57.34
2022-12-17T01:39:16.540Z,57.39
2022-12-17T01:42:01.401Z,58.25
2022-12-17T01:45:01.829Z,57.98
2022-12-17T01:47:48.955Z,58.09
2022-12-17T01:50:35.603Z,57.87
2022-12-17T01:53:22.111Z,57.93
2022-12-17T01:56:10.092Z,57.92
2022-12-17T01:58:55.067Z,57.33
2022-12-17T02:01:40.613Z,57.84
2022-12-17T02:04:28.310Z,57.85
2022-12-17T02:07:29.002Z,57.96
2022-12-17T02:10:23.674Z,57.90
2022-12-17T02:13:11.569Z,57.91
2022-12-17T02:16:01.783Z,57.96
2022-12-17T02:19:06.788Z,58.12
2022-12-17T02:21:53.162Z,58.13
2022-12-17T02:24:38.268Z,58.34
2022-12-17T02:27:24.657Z,58.01
2022-12-17T02:30:12.508Z,58.30
2022-12-17T02:33:01.956Z,58.07
2022-12-17T02:35:49.731Z,58.44
2022-12-17T02:38:36.070Z,58.37
2022-12-17T02:41:23.432Z,58.11
2022-12-17T02:44:09.233Z,57.94
2022-12-17T02:46:55.099Z,58.15
2022-12-17T02:49:40.317Z,57.47
2022-12-17T02:52:29.478Z,56.54
2022-12-17T02:55:16.866Z,57.17
2022-12-17T02:58:01.579Z,57.44
2022-12-17T03:00:47.372Z,58.59
2022-12-17T03:03:35.614Z,58.56
2022-12-17T03:06:21.242Z,58.68
2022-12-17T03:09:06.505Z,58.77
2022-12-17T03:11:51.752Z,58.90
2022-12-17T03:14:36.909Z,58.60
2022-12-17T03:17:22.267Z,57.90
2022-12-17T03:20:07.471Z,57.91
2022-12-17T03:22:52.253Z,58.25
2022-12-17T03:25:37.372Z,57.92
2022-12-17T03:28:23.174Z,57.85
2022-12-17T03:31:08.117Z,57.95
2022-12-17T03:33:53.046Z,58.82
2022-12-17T03:36:38.449Z,58.23
2022-12-17T03:39:23.287Z,58.19
2022-12-17T03:42:08.240Z,58.35
2022-12-17T03:44:53.015Z,57.92
2022-12-17T03:47:37.781Z,58.27
2022-12-17T03:50:23.238Z,58.31
2022-12-17T03:53:08.381Z,58.73
2022-12-17T03:55:53.331Z,58.60
2022-12-17T03:58:38.217Z,58.93
2022-12-17T04:01:23.155Z,58.88
2022-12-17T04:04:08.281Z,58.52
2022-12-17T04:06:53.142Z,57.37
2022-12-17T04:09:38.242Z,56.97
2022-12-17T04:12:23.000Z,57.72
2022-12-17T04:15:07.820Z,58.61
2022-12-17T04:17:52.552Z,58.11
2022-12-17T04:20:37.404Z,57.97
2022-12-17T04:23:22.415Z,57.98
2022-12-17T04:26:07.142Z,57.64
2022-12-17T04:28:52.132Z,57.97
2022-12-17T04:31:37.097Z,57.23
2022-12-17T04:34:21.809Z,56.70
2022-12-17T04:37:06.766Z,56.50
2022-12-17T04:39:51.773Z,57.56
2022-12-17T04:42:37.087Z,57.70
2022-12-17T04:45:35.583Z,58.18
2022-12-17T04:48:41.296Z,57.33
2022-12-17T04:51:25.925Z,57.37
2022-12-17T04:54:11.076Z,57.16
2022-12-17T04:56:59.527Z,57.08
2022-12-17T04:59:44.899Z,57.38
2022-12-17T05:02:29.800Z,57.49
2022-12-17T05:05:14.828Z,57.56
2022-12-17T05:07:59.886Z,57.51
2022-12-17T05:10:44.903Z,57.23
2022-12-17T05:13:30.088Z,57.22
2022-12-17T05:16:15.646Z,57.51
2022-12-17T05:19:00.803Z,57.66
2022-12-17T05:21:45.577Z,57.30
2022-12-17T05:24:30.202Z,56.53
2022-12-17T05:27:15.092Z,56.16
2022-12-17T05:29:59.966Z,56.45
2022-12-17T05:32:44.846Z,56.56
2022-12-17T05:35:29.806Z,57.00
2022-12-17T05:38:20.938Z,57.26
2022-12-17T05:41:06.024Z,57.10
2022-12-17T05:43:50.929Z,57.64
2022-12-17T05:46:35.833Z,57.84
2022-12-17T05:49:20.991Z,58.02
2022-12-17T05:52:05.789Z,57.01
2022-12-17T05:54:51.035Z,56.89
2022-12-17T05:57:35.816Z,57.40
2022-12-17T06:00:20.592Z,57.90
2022-12-17T06:03:05.605Z,57.25
2022-12-17T06:05:50.660Z,56.86
2022-12-17T06:08:35.641Z,56.23
2022-12-17T06:11:20.382Z,55.80
2022-12-17T06:14:05.708Z,55.82
2022-12-17T06:16:50.536Z,56.73
2022-12-17T06:19:35.469Z,56.92
2022-12-17T06:22:20.611Z,56.86
2022-12-17T06:25:05.615Z,57.12
2022-12-17T06:27:50.397Z,56.97
2022-12-17T06:30:35.480Z,57.14
2022-12-17T06:33:27.593Z,57.27
2022-12-17T06:36:19.901Z,57.37
2022-12-17T06:39:06.901Z,57.04
2022-12-17T06:41:51.614Z,56.87
2022-12-17T06:44:37.699Z,57.19
2022-12-17T06:47:22.946Z,57.58
2022-12-17T06:50:07.872Z,57.83
2022-12-17T06:52:52.722Z,57.87
2022-12-17T06:55:37.788Z,57.82
2022-12-17T06:58:39.326Z,57.53
2022-12-17T07:01:44.738Z,57.01
2022-12-17T07:04:29.874Z,56.29
2022-12-17T07:07:17.585Z,56.64
2022-12-17T07:10:03.374Z,56.68
2022-12-17T07:12:48.161Z,57.19
2022-12-17T07:15:33.048Z,57.44
2022-12-17T07:18:19.536Z,57.46
2022-12-17T07:21:05.156Z,56.07
2022-12-17T07:23:50.497Z,55.22
2022-12-17T07:26:35.866Z,55.80
2022-12-17T07:29:20.949Z,55.76
2022-12-17T07:32:06.061Z,55.22
2022-12-17T07:34:51.155Z,55.64
2022-12-17T07:37:36.220Z,56.18
2022-12-17T07:40:21.354Z,56.49
2022-12-17T07:43:06.624Z,56.19
2022-12-17T07:45:51.329Z,56.44
2022-12-17T07:48:36.783Z,56.50
2022-12-17T07:51:21.491Z,56.54
2022-12-17T07:54:06.433Z,56.73
2022-12-17T07:56:51.114Z,56.98
2022-12-17T07:59:36.045Z,56.98
2022-12-17T08:02:21.333Z,56.90
2022-12-17T08:05:06.565Z,56.51
2022-12-17T08:07:51.645Z,56.64
2022-12-17T08:10:37.119Z,56.45
2022-12-17T08:13:23.222Z,56.69
2022-12-17T08:16:10.666Z,56.70
2022-12-17T08:18:55.933Z,56.16
2022-12-17T08:21:41.338Z,56.01
2022-12-17T08:24:26.338Z,56.41
2022-12-17T08:27:11.316Z,56.18
2022-12-17T08:29:56.204Z,55.99
2022-12-17T08:32:42.473Z,55.22
2022-12-17T08:35:27.387Z,54.99
2022-12-17T08:38:12.310Z,56.14
2022-12-17T08:40:57.462Z,57.16
2022-12-17T08:43:42.390Z,57.34
2022-12-17T08:46:27.144Z,57.18
2022-12-17T08:49:11.989Z,57.25
2022-12-17T08:51:56.648Z,57.30
2022-12-17T08:54:41.652Z,57.45
2022-12-17T08:57:31.877Z,57.38
2022-12-17T09:00:17.605Z,57.61
2022-12-17T09:03:03.048Z,57.41
2022-12-17T09:05:48.176Z,57.18
2022-12-17T09:08:33.584Z,57.46
2022-12-17T09:11:18.799Z,57.12
2022-12-17T09:14:03.800Z,57.70
2022-12-17T09:16:50.241Z,58.12
2022-12-17T09:19:35.526Z,57.89
2022-12-17T09:22:20.731Z,57.70
2022-12-17T09:25:06.065Z,57.61
2022-12-17T09:27:51.971Z,57.86
2022-12-17T09:30:36.984Z,58.34
2022-12-17T09:33:21.853Z,58.06
2022-12-17T09:36:06.857Z,58.22
2022-12-17T09:38:51.498Z,58.28
2022-12-17T09:41:40.317Z,57.97
2022-12-17T09:44:32.111Z,57.80
2022-12-17T09:47:16.989Z,57.71
2022-12-17T09:50:01.937Z,57.43
2022-12-17T09:52:58.098Z,57.70
2022-12-17T09:55:48.386Z,57.46
2022-12-17T09:58:43.849Z,57.60
2022-12-17T10:01:35.343Z,58.43
2022-12-17T10:04:24.155Z,59.31
2022-12-17T10:07:09.377Z,59.06
2022-12-17T10:10:09.022Z,59.47
2022-12-17T10:12:53.820Z,59.03
2022-12-17T10:15:38.610Z,58.79
2022-12-17T10:18:29.478Z,58.31
2022-12-17T10:21:19.700Z,58.54
2022-12-17T10:24:04.688Z,59.03
2022-12-17T10:26:50.905Z,59.47
2022-12-17T10:32:43.345Z,59.14
2022-12-17T10:35:46.769Z,58.83
2022-12-17T10:38:42.458Z,59.33
2022-12-17T10:41:43.858Z,58.44
2022-12-17T10:44:39.447Z,58.42
2022-12-17T10:47:30.868Z,57.76
2022-12-17T10:50:20.578Z,58.17
2022-12-17T10:53:06.601Z,57.68
2022-12-17T10:55:52.603Z,57.83
2022-12-17T10:58:40.413Z,58.13
2022-12-17T11:01:28.720Z,57.62
2022-12-17T11:04:14.732Z,56.94
2022-12-17T11:07:04.353Z,57.25
2022-12-17T11:10:09.471Z,57.91
2022-12-17T11:13:00.846Z,56.70
2022-12-17T11:15:56.687Z,56.96
2022-12-17T11:19:09.360Z,56.57
2022-12-17T11:22:02.502Z,56.02
2022-12-17T11:24:59.068Z,55.52
2022-12-17T11:27:46.144Z,55.86
2022-12-17T11:30:38.560Z,55.51
2022-12-17T11:33:35.198Z,54.99
2022-12-17T11:36:35.156Z,55.38
2022-12-17T11:39:44.865Z,56.48
2022-12-17T11:42:51.376Z,55.87
2022-12-17T11:46:11.751Z,55.54
2022-12-17T11:49:19.638Z,54.91
2022-12-17T11:52:10.894Z,54.75
2022-12-17T11:55:11.136Z,54.67
2022-12-17T11:58:05.958Z,55.20
2022-12-17T12:01:14.249Z,54.91
2022-12-17T12:04:02.130Z,53.79
2022-12-17T12:06:53.188Z,53.87
2022-12-17T12:09:51.774Z,54.07
2022-12-17T12:12:54.971Z,54.26
2022-12-17T12:15:44.227Z,54.22
2022-12-17T12:18:34.140Z,53.81
2022-12-17T12:21:22.356Z,53.72
2022-12-17T12:24:10.315Z,52.85
2022-12-17T12:27:10.506Z,53.33
2022-12-17T12:29:58.386Z,53.18
2022-12-17T12:32:54.730Z,52.83
2022-12-17T12:35:41.636Z,53.54
2022-12-17T12:38:34.338Z,53.04
2022-12-17T12:41:29.563Z,53.09
2022-12-17T12:44:18.515Z,53.42
2022-12-17T12:47:11.410Z,52.83
2022-12-17T12:50:01.643Z,52.64
2022-12-17T12:52:47.059Z,52.59
2022-12-17T12:55:31.943Z,52.90
2022-12-17T12:58:17.214Z,52.74
2022-12-17T13:01:02.391Z,52.14
2022-12-17T13:03:51.726Z,51.95
2022-12-17T13:06:36.784Z,51.76
2022-12-17T13:09:23.736Z,52.41
2022-12-17T13:11:54.427Z,52.01
2022-12-17T13:14:28.370Z,51.88
2022-12-17T13:16:56.442Z,52.10
2022-12-17T13:19:31.962Z,52.38
2022-12-17T13:22:23.367Z,52.20
2022-12-17T13:24:51.479Z,52.07
2022-12-17T13:27:35.853Z,51.68
2022-12-17T13:30:31.442Z,52.16
2022-12-17T13:32:57.687Z,51.91
2022-12-17T13:35:34.785Z,52.03
2022-12-17T13:38:21.247Z,52.02
2022-12-17T13:41:06.696Z,52.37
2022-12-17T13:43:44.774Z,52.38
2022-12-17T13:46:18.612Z,51.85
2022-12-17T13:48:51.788Z,51.62
2022-12-17T13:51:19.334Z,51.61
2022-12-17T13:53:53.458Z,51.70
2022-12-17T13:56:39.029Z,51.89
2022-12-17T13:59:09.562Z,51.73
2022-12-17T14:01:44.621Z,52.34
2022-12-17T14:04:19.309Z,52.07
2022-12-17T14:06:45.983Z,51.65
2022-12-17T14:09:20.116Z,51.77
2022-12-17T14:12:05.729Z,51.91
2022-12-17T14:14:33.970Z,51.67
2022-12-17T14:17:01.432Z,51.82
2022-12-17T14:19:32.123Z,52.41
2022-12-17T14:21:59.422Z,52.10
2022-12-17T14:24:29.431Z,52.23
2022-12-17T14:26:58.536Z,52.19
2022-12-17T14:29:26.594Z,52.38
2022-12-17T14:31:54.664Z,52.43
2022-12-17T14:34:21.391Z,52.17
2022-12-17T14:36:53.355Z,52.08
2022-12-17T14:39:25.596Z,52.08
2022-12-17T14:45:00.646Z,52.39
2022-12-17T14:47:31.292Z,52.60
2022-12-17T14:50:05.199Z,52.61
2022-12-17T14:52:37.516Z,52.45
2022-12-17T14:55:23.805Z,52.50
2022-12-17T14:57:53.828Z,52.52
2022-12-17T15:00:20.542Z,52.93
2022-12-17T15:02:51.569Z,52.89
2022-12-17T15:05:18.278Z,53.07
2022-12-17T15:07:44.777Z,52.79
2022-12-17T15:10:12.704Z,52.98
2022-12-17T15:12:40.746Z,52.75
2022-12-17T15:15:07.482Z,52.95
2022-12-17T15:17:34.403Z,52.73
2022-12-17T15:20:00.904Z,52.90
2022-12-17T15:22:27.482Z,53.31
2022-12-17T15:24:53.998Z,53.47
2022-12-17T15:27:21.994Z,53.60
2022-12-17T15:29:49.874Z,53.59
2022-12-17T15:32:20.521Z,53.65
2022-12-17T15:34:47.023Z,53.47
2022-12-17T15:37:13.909Z,53.47
2022-12-17T15:39:40.685Z,54.16
2022-12-17T15:42:26.195Z,53.78
2022-12-17T15:44:52.654Z,54.05
2022-12-17T15:47:19.008Z,54.50
2022-12-17T15:49:45.537Z,54.24
2022-12-17T15:52:16.481Z,54.08
2022-12-17T15:54:44.377Z,53.91
2022-12-17T15:57:18.270Z,53.84
2022-12-17T15:59:53.326Z,54.16
2022-12-17T16:02:20.135Z,54.62
2022-12-17T16:04:46.789Z,54.25
2022-12-17T16:07:13.367Z,54.17
2022-12-17T16:09:40.576Z,54.25
2022-12-17T16:12:07.266Z,54.51
2022-12-17T16:14:33.897Z,54.58
2022-12-17T16:17:11.227Z,54.71
2022-12-17T16:19:37.807Z,54.93
2022-12-17T16:22:05.255Z,54.76
2022-12-17T16:24:32.911Z,54.68
2022-12-17T16:27:04.281Z,55.18
2022-12-17T16:29:32.211Z,54.91
2022-12-17T16:32:00.029Z,55.34
2022-12-17T16:34:26.560Z,54.82
2022-12-17T16:36:53.464Z,55.04
2022-12-17T16:39:21.169Z,54.99
2022-12-17T16:41:47.600Z,54.48
2022-12-17T16:44:16.212Z,55.64
2022-12-17T16:46:43.532Z,55.79
2022-12-17T16:49:12.868Z,55.37
2022-12-17T16:51:40.761Z,54.96
2022-12-17T16:54:18.815Z,55.38
2022-12-17T16:56:46.093Z,54.99
2022-12-17T16:59:13.626Z,54.84
2022-12-17T17:01:47.191Z,55.09
2022-12-17T17:04:14.755Z,55.84
2022-12-17T17:06:54.189Z,55.28
2022-12-17T17:09:37.652Z,54.75
2022-12-17T17:12:04.456Z,54.49
2022-12-17T17:14:32.129Z,54.22
2022-12-17T17:16:58.751Z,53.93
2022-12-17T17:19:25.262Z,54.32
2022-12-17T17:21:57.939Z,54.60
2022-12-17T17:24:29.847Z,54.78
2022-12-17T17:26:58.971Z,54.96
2022-12-17T17:29:28.865Z,55.06
2022-12-17T17:32:14.234Z,55.48
2022-12-17T17:34:44.707Z,55.12
2022-12-17T17:37:12.992Z,54.92
2022-12-17T17:39:41.903Z,55.48
2022-12-17T17:42:09.362Z,55.80
2022-12-17T17:44:36.734Z,55.52
2022-12-17T17:47:03.762Z,55.56
2022-12-17T17:49:30.972Z,55.41
2022-12-17T17:52:15.633Z,55.47
2022-12-17T17:54:44.431Z,55.40
2022-12-17T17:57:14.068Z,55.67
2022-12-17T17:59:54.260Z,55.55
2022-12-17T18:02:24.488Z,55.72
2022-12-17T18:04:53.945Z,55.90
2022-12-17T18:07:25.950Z,55.72
2022-12-17T18:09:58.540Z,55.64
2022-12-17T18:12:46.180Z,56.00
2022-12-17T18:15:18.014Z,55.85
2022-12-17T18:17:51.468Z,55.62
2022-12-17T18:20:21.549Z,55.98
2022-12-17T18:22:52.166Z,55.79
2022-12-17T18:25:23.949Z,55.80
2022-12-17T18:27:57.655Z,55.90
2022-12-17T18:30:27.001Z,56.39
2022-12-17T18:32:55.376Z,56.70
2022-12-17T18:35:23.589Z,56.26
2022-12-17T18:37:53.925Z,56.07
2022-12-17T18:40:21.670Z,56.34
2022-12-17T18:43:07.106Z,56.42
2022-12-17T18:45:39.110Z,56.44
2022-12-17T18:48:06.638Z,56.41
2022-12-17T18:50:36.003Z,56.11
2022-12-17T18:53:03.311Z,55.77
2022-12-17T18:55:33.754Z,55.50
2022-12-17T18:58:02.758Z,55.64
2022-12-17T19:00:35.764Z,55.82
2022-12-17T19:03:07.565Z,55.71
2022-12-17T19:05:47.235Z,55.75
2022-12-17T19:08:19.268Z,55.83
2022-12-17T19:10:47.653Z,55.68
2022-12-17T19:13:14.898Z,55.79
2022-12-17T19:15:41.742Z,56.04
2022-12-17T19:18:10.150Z,56.31
2022-12-17T19:20:37.189Z,55.99
2022-12-17T19:23:05.238Z,56.23
2022-12-17T19:25:33.608Z,56.26
2022-12-17T19:28:00.472Z,56.08
2022-12-17T19:30:28.648Z,56.41
2022-12-17T19:32:55.968Z,56.06
2022-12-17T19:35:22.554Z,55.80
2022-12-17T19:37:50.071Z,55.99
2022-12-17T19:40:17.981Z,55.86
2022-12-17T19:42:44.871Z,56.00
2022-12-17T19:45:12.969Z,56.10
2022-12-17T19:47:41.097Z,56.19
2022-12-17T19:50:08.537Z,56.24
2022-12-17T19:52:35.721Z,56.17
2022-12-17T19:55:03.458Z,55.67
2022-12-17T19:57:30.627Z,55.90
2022-12-17T19:59:57.710Z,56.10
2022-12-17T20:02:32.313Z,56.21
2022-12-17T20:05:01.059Z,56.66
2022-12-17T20:07:34.682Z,56.57
2022-12-17T20:10:04.348Z,56.41
2022-12-17T20:12:43.871Z,56.95
2022-12-17T20:15:10.993Z,57.03
2022-12-17T20:17:38.917Z,57.03
2022-12-17T20:20:06.817Z,56.75
2022-12-17T20:22:34.274Z,57.00
2022-12-17T20:25:05.338Z,56.60
2022-12-17T20:27:35.406Z,56.86
2022-12-17T20:30:09.236Z,56.94
2022-12-17T20:32:36.044Z,57.04
2022-12-17T20:35:03.488Z,56.96
2022-12-17T20:37:32.221Z,56.94
2022-12-17T20:39:58.625Z,57.14
2022-12-17T20:42:24.985Z,56.90
2022-12-17T20:44:53.538Z,57.16
2022-12-17T20:47:20.287Z,56.69
2022-12-17T20:49:47.020Z,56.75
2022-12-17T20:52:13.393Z,56.64
2022-12-17T20:54:39.889Z,56.81
2022-12-17T20:57:06.542Z,56.72
2022-12-17T20:59:33.038Z,56.56
2022-12-17T21:01:59.534Z,57.01
2022-12-17T21:04:26.025Z,57.22
2022-12-17T21:06:52.992Z,57.06
2022-12-17T21:09:21.189Z,56.96
2022-12-17T21:11:47.938Z,56.84
2022-12-17T21:14:16.604Z,56.84
2022-12-17T21:16:43.580Z,56.70
2022-12-17T21:19:12.581Z,56.70
2022-12-17T21:21:39.404Z,56.61
2022-12-17T21:24:06.628Z,57.02
2022-12-17T21:26:36.731Z,56.93
2022-12-17T21:29:04.727Z,56.85
2022-12-17T21:31:40.657Z,56.47
2022-12-17T21:34:09.625Z,56.49
2022-12-17T21:36:36.553Z,56.58
2022-12-17T21:39:09.356Z,56.79
2022-12-17T21:41:37.638Z,56.83
2022-12-17T21:44:06.615Z,56.55
2022-12-17T21:46:33.149Z,56.47
2022-12-17T21:49:00.739Z,56.75
2022-12-17T21:51:28.358Z,56.79
2022-12-17T21:53:56.289Z,56.55
2022-12-17T21:56:23.689Z,56.63
2022-12-17T21:58:50.829Z,56.61
2022-12-17T22:01:19.843Z,57.15
2022-12-17T22:03:50.797Z,56.75
2022-12-17T22:06:21.495Z,56.72
2022-12-17T22:08:49.530Z,56.92
2022-12-17T22:11:20.791Z,56.96
2022-12-17T22:14:10.049Z,57.02
2022-12-17T22:16:47.380Z,57.03
2022-12-17T22:19:16.438Z,57.08
2022-12-17T22:21:44.395Z,57.13
2022-12-17T22:24:15.277Z,56.63
2022-12-17T22:26:42.789Z,56.63
2022-12-17T22:29:09.506Z,56.33
2022-12-17T22:31:54.557Z,56.51
2022-12-17T22:35:07.839Z,56.70
2022-12-17T22:41:36.993Z,56.70
2022-12-17T22:41:53.417Z,56.80
2022-12-17T22:44:42.957Z,56.72
2022-12-17T22:45:46.007Z,56.97
2022-12-17T22:48:13.589Z,56.78
2022-12-17T22:50:43.582Z,56.68
2022-12-17T22:53:27.521Z,56.77
2022-12-17T22:55:56.558Z,56.70
2022-12-17T22:58:24.054Z,57.00
2022-12-17T23:00:51.910Z,57.00
2022-12-17T23:03:18.552Z,57.04
2022-12-17T23:05:45.093Z,57.15
2022-12-17T23:08:12.203Z,57.19
2022-12-17T23:10:38.622Z,56.93
2022-12-17T23:13:05.355Z,57.21
2022-12-17T23:15:38.928Z,57.15
2022-12-17T23:18:06.673Z,57.43
2022-12-17T23:20:34.495Z,57.09
2022-12-17T23:23:01.219Z,57.80
2022-12-17T23:25:29.370Z,57.99
2022-12-17T23:27:56.336Z,58.00
2022-12-17T23:30:23.165Z,57.29
2022-12-17T23:32:52.194Z,57.17
2022-12-17T23:35:18.904Z,57.07
2022-12-17T23:37:45.824Z,56.98
2022-12-17T23:40:12.901Z,56.61
2022-12-17T23:42:40.023Z,56.65
2022-12-17T23:45:07.790Z,56.86
2022-12-17T23:47:34.288Z,56.68
2022-12-17T23:50:02.417Z,56.67
2022-12-17T23:52:30.067Z,56.56
2022-12-17T23:54:57.062Z,56.71
2022-12-17T23:57:24.054Z,56.27
2022-12-17T23:59:50.653Z,56.46
